Time;durP1;ratioP1;P1;durP2;ratioP2;P2;SDS_P1;SDS_P2;PMS_P1;PMS_P2;Temp;Humidity;BMP_temperature;BMP_pressure;BME280_temperature;BME280_humidity;BME280_pressure;Samples;Min_cycle;Max_cycle;Signal;HPM_P1;HPM_P2
2021/12/13 00:01:21;;;;;;;13.85;7.30;;;8.20;99.90;;;;;;5057159;28;20024;-69
2021/12/13 00:03:55;;;;;;;17.30;8.13;;;8.20;99.90;;;;;;5055719;28;20025;-69
2021/12/13 00:06:31;;;;;;;16.75;7.18;;;8.30;99.90;;;;;;5057232;28;20035;-69
2021/12/13 00:09:04;;;;;;;16.13;7.95;;;8.30;99.90;;;;;;5056720;28;20021;-69
2021/12/13 00:11:42;;;;;;;17.77;8.77;;;8.30;99.90;;;;;;5056981;28;20028;-69
2021/12/13 00:14:12;;;;;;;18.02;8.88;;;8.30;99.90;;;;;;5056674;28;20021;-69
2021/12/13 00:16:48;;;;;;;17.38;7.68;;;8.30;99.90;;;;;;5056691;28;20029;-69
2021/12/13 00:19:31;;;;;;;17.10;8.88;;;8.30;99.90;;;;;;5056806;28;20104;-69
2021/12/13 00:22:07;;;;;;;16.92;7.95;;;8.40;99.90;;;;;;5055743;28;20120;-70
2021/12/13 00:24:35;;;;;;;;;;;8.40;99.90;;;;;;5057867;28;20108;-69
2021/12/13 00:27:10;;;;;;;16.30;8.73;;;8.40;99.90;;;;;;5057133;28;19924;-69
2021/12/13 00:30:28;;;;;;;18.17;9.27;;;8.40;99.90;;;;;;5056333;28;20100;-69
2021/12/13 00:33:36;;;;;;;18.80;8.70;;;8.40;99.90;;;;;;4996517;28;20033;-70
2021/12/13 00:36:30;;;;;;;21.48;8.65;;;8.50;99.90;;;;;;5046973;28;20033;-69
2021/12/13 00:39:17;;;;;;;20.85;9.50;;;8.50;99.90;;;;;;5050313;28;20033;-69
2021/12/13 00:41:47;;;;;;;15.05;8.48;;;8.50;99.90;;;;;;5057142;28;20048;-69
2021/12/13 00:44:28;;;;;;;17.88;9.15;;;8.50;99.90;;;;;;5057057;28;20045;-69
2021/12/13 00:47:02;;;;;;;18.38;8.90;;;8.50;99.90;;;;;;5056260;28;20080;-69
2021/12/13 00:49:32;;;;;;;17.67;9.23;;;8.50;99.90;;;;;;5055253;28;20368;-69
2021/12/13 00:52:02;;;;;;;17.35;8.48;;;8.50;99.90;;;;;;5056294;28;20025;-69
2021/12/13 00:54:39;;;;;;;20.52;8.77;;;8.50;99.90;;;;;;5056873;28;20104;-70
2021/12/13 00:57:07;;;;;;;17.05;8.43;;;8.50;99.90;;;;;;5056467;28;20029;-70
2021/12/13 00:59:49;;;;;;;16.88;7.88;;;8.50;99.90;;;;;;5056796;28;20029;-69
2021/12/13 01:02:29;;;;;;;20.55;9.52;;;8.50;99.90;;;;;;5056116;28;20033;-69
2021/12/13 01:05:26;;;;;;;20.25;9.50;;;8.50;99.90;;;;;;5056557;28;20083;-70
2021/12/13 01:08:00;;;;;;;19.25;8.65;;;8.60;99.90;;;;;;5057232;28;20445;-69
2021/12/13 01:10:40;;;;;;;24.88;11.88;;;8.60;99.90;;;;;;5056010;28;20417;-69
2021/12/13 01:13:22;;;;;;;22.63;10.80;;;8.60;99.90;;;;;;5056966;28;20024;-70
2021/12/13 01:16:10;;;;;;;25.48;11.32;;;8.60;99.90;;;;;;5057225;28;20017;-69
2021/12/13 01:19:25;;;;;;;27.98;11.90;;;8.50;99.90;;;;;;5056825;28;20025;-70
2021/12/13 01:22:55;;;;;;;27.13;11.45;;;8.60;99.90;;;;;;5056797;28;20433;-69
2021/12/13 01:27:51;;;;;;;28.13;12.75;;;8.60;99.90;;;;;;5055674;28;20045;-69
2021/12/13 01:30:33;;;;;;;28.67;11.93;;;8.60;99.90;;;;;;5055921;28;20017;-67
2021/12/13 01:33:07;;;;;;;30.13;12.02;;;8.60;99.90;;;;;;5055877;28;20078;-67
2021/12/13 01:35:41;;;;;;;28.65;13.25;;;8.70;99.90;;;;;;5055837;28;20021;-67
2021/12/13 01:38:14;;;;;;;26.90;13.00;;;8.60;99.90;;;;;;5054665;28;20430;-67
2021/12/13 01:40:49;;;;;;;24.42;11.52;;;8.70;99.90;;;;;;5055841;28;20036;-67
2021/12/13 01:43:27;;;;;;;25.35;12.18;;;8.70;99.90;;;;;;5056503;28;20104;-67
2021/12/13 01:45:59;;;;;;;24.05;11.40;;;8.70;99.90;;;;;;5071319;28;20025;-67
2021/12/13 01:48:33;;;;;;;25.65;10.70;;;8.70;99.90;;;;;;5056280;28;20013;-67
2021/12/13 01:51:06;;;;;;;20.33;10.68;;;8.70;99.90;;;;;;5072418;28;20032;-67
2021/12/13 01:53:55;;;;;;;25.27;10.90;;;8.70;99.90;;;;;;5060818;28;20025;-67
2021/12/13 01:56:54;;;;;;;22.23;11.55;;;8.70;99.90;;;;;;5060112;28;20028;-67
2021/12/13 02:02:17;;;;;;;25.30;11.15;;;8.80;99.90;;;;;;5060370;28;20166;-67
2021/12/13 15:49:45;;;;;;;13.90;7.35;;;7.70;99.90;;;;;;5017787;28;20048;-71
2021/12/13 15:52:20;;;;;;;21.33;9.38;;;7.70;99.90;;;;;;5016230;28;20125;-68
2021/12/13 15:54:52;;;;;;;22.35;8.68;;;7.60;99.90;;;;;;5017181;28;20026;-73
2021/12/13 15:57:24;;;;;;;21.15;11.02;;;7.70;99.90;;;;;;5016183;28;20112;-73
2021/12/13 15:59:56;;;;;;;21.10;11.20;;;7.70;99.90;;;;;;5017460;28;20104;-71
2021/12/13 16:02:34;;;;;;;22.35;12.82;;;7.60;99.90;;;;;;5016039;28;20021;-71
2021/12/13 16:05:19;;;;;;;21.73;12.95;;;7.60;99.90;;;;;;5017444;28;20430;-72
2021/12/13 16:07:47;;;;;;;21.25;9.05;;;7.60;99.90;;;;;;5018660;28;20030;-72
2021/12/13 16:10:21;;;;;;;16.73;9.48;;;7.60;99.90;;;;;;5017929;28;20450;-72
2021/12/13 16:12:51;;;;;;;17.38;9.18;;;7.60;99.90;;;;;;5018586;28;20026;-72
2021/12/13 16:15:22;;;;;;;15.90;9.38;;;7.60;99.90;;;;;;5018044;28;20365;-72
2021/12/13 16:17:55;;;;;;;18.05;10.13;;;7.60;99.90;;;;;;5018002;28;20449;-72
2021/12/13 16:20:28;;;;;;;22.15;10.77;;;7.60;99.90;;;;;;5033161;28;20121;-72
2021/12/13 16:22:58;;;;;;;21.00;9.20;;;7.60;99.90;;;;;;5018348;28;20029;-74
2021/12/13 16:25:44;;;;;;;17.23;8.93;;;7.60;99.90;;;;;;5017178;28;20030;-72
2021/12/13 16:28:14;;;;;;;19.70;9.97;;;7.60;99.90;;;;;;5017410;28;20303;-71
2021/12/13 16:31:16;;;;;;;17.15;9.75;;;7.60;99.90;;;;;;5017591;28;20293;-71
2021/12/13 16:33:58;;;;;;;15.25;8.07;;;7.70;99.90;;;;;;5017409;28;20028;-75
2021/12/13 16:36:45;;;;;;;15.82;8.10;;;7.60;99.90;;;;;;5015718;28;20021;-72
2021/12/13 16:39:21;;;;;;;16.85;8.68;;;7.60;99.90;;;;;;5016719;28;20030;-71
2021/12/13 16:41:52;;;;;;;20.25;8.90;;;7.60;99.90;;;;;;5016940;28;20030;-72
2021/12/13 16:44:25;;;;;;;16.60;7.45;;;7.60;99.90;;;;;;5016906;28;20041;-72
2021/12/13 16:46:56;;;;;;;20.30;8.43;;;7.60;99.90;;;;;;5016947;28;20422;-71
2021/12/13 16:49:27;;;;;;;18.30;8.82;;;7.60;99.90;;;;;;5054782;28;20124;-72
2021/12/13 16:52:08;;;;;;;16.35;9.18;;;7.50;99.90;;;;;;5056060;28;20032;-72
2021/12/13 16:54:43;;;;;;;14.35;7.88;;;7.50;99.90;;;;;;5057640;28;20025;-71
2021/12/13 16:57:21;;;;;;;21.40;9.43;;;7.50;99.90;;;;;;5056074;28;20052;-71
2021/12/13 16:59:51;;;;;;;17.90;9.40;;;7.50;99.90;;;;;;5057961;28;20105;-71
2021/12/13 17:02:20;;;;;;;19.95;10.82;;;7.50;99.90;;;;;;5056585;28;20028;-71
2021/12/13 17:04:53;;;;;;;21.75;10.13;;;7.40;99.90;;;;;;5057123;28;20036;-71
2021/12/13 17:07:26;;;;;;;17.13;8.77;;;7.50;99.90;;;;;;5056058;28;20025;-71
2021/12/13 17:09:58;;;;;;;17.80;8.95;;;7.40;99.90;;;;;;5056838;28;20097;-71
2021/12/13 17:12:33;;;;;;;15.80;8.82;;;7.40;99.90;;;;;;5056679;28;20017;-71
2021/12/13 17:15:12;;;;;;;16.88;8.98;;;7.40;99.90;;;;;;5056157;28;20049;-71
2021/12/13 17:17:44;;;;;;;20.83;10.60;;;7.40;99.90;;;;;;5056052;28;20025;-71
2021/12/13 17:20:33;;;;;;;23.88;10.32;;;7.40;99.90;;;;;;5056199;28;20031;-71
2021/12/13 17:23:24;;;;;;;26.73;10.98;;;7.40;99.90;;;;;;5059377;28;20025;-72
2021/12/13 17:25:53;;;;;;;21.20;9.02;;;7.40;99.90;;;;;;5059869;28;20033;-71
2021/12/13 17:28:35;;;;;;;20.10;10.65;;;7.40;99.90;;;;;;5061296;28;20298;-71
2021/12/13 17:31:03;;;;;;;17.63;9.52;;;7.40;99.90;;;;;;5061261;28;20021;-71
2021/12/13 17:33:38;;;;;;;15.30;8.02;;;7.40;99.90;;;;;;5060711;28;20021;-71
2021/12/13 17:36:09;;;;;;;18.05;8.10;;;7.30;99.90;;;;;;5061200;28;20032;-71
2021/12/13 17:38:36;;;;;;;18.60;9.25;;;7.30;99.90;;;;;;5059610;28;20354;-71
2021/12/13 17:41:09;;;;;;;18.33;10.38;;;7.30;99.90;;;;;;5060849;28;20099;-71
2021/12/13 17:43:42;;;;;;;18.33;9.45;;;7.30;99.90;;;;;;5060819;28;20078;-71
2021/12/13 17:46:20;;;;;;;20.33;8.38;;;7.20;99.90;;;;;;5060649;28;20406;-71
2021/12/13 17:48:51;;;;;;;15.20;8.57;;;7.20;99.90;;;;;;5058151;28;20072;-71
2021/12/13 17:51:22;;;;;;;19.15;9.75;;;7.20;99.90;;;;;;5058356;28;20017;-71
2021/12/13 17:54:02;;;;;;;19.95;9.25;;;7.20;99.90;;;;;;5059717;28;20028;-71
2021/12/13 17:56:29;;;;;;;19.35;9.65;;;7.20;99.90;;;;;;5059849;28;20021;-72
2021/12/13 17:59:00;;;;;;;20.73;9.77;;;7.20;99.90;;;;;;5058159;28;20051;-72
2021/12/13 18:01:36;;;;;;;16.75;9.18;;;7.20;99.90;;;;;;5059216;28;20025;-71
2021/12/13 18:04:25;;;;;;;16.88;9.15;;;7.20;99.90;;;;;;5059909;28;20070;-71
2021/12/13 18:07:05;;;;;;;19.05;9.95;;;7.20;99.90;;;;;;5059574;28;20029;-72
2021/12/13 18:09:47;;;;;;;34.53;18.45;;;7.20;99.90;;;;;;5059558;28;20066;-71
2021/12/13 18:12:33;;;;;;;31.88;17.25;;;7.20;99.90;;;;;;5060513;28;20310;-71
2021/12/13 18:15:25;;;;;;;52.20;25.60;;;7.20;99.90;;;;;;5059981;28;20023;-71
2021/12/13 18:18:02;;;;;;;64.93;27.30;;;7.20;99.90;;;;;;5058759;28;20040;-71
2021/12/13 18:20:44;;;;;;;68.53;29.17;;;7.20;99.90;;;;;;5060451;28;20024;-71
2021/12/13 18:23:31;;;;;;;42.88;19.60;;;7.20;99.90;;;;;;5059909;28;20343;-71
2021/12/13 18:26:10;;;;;;;41.58;18.92;;;7.20;99.90;;;;;;5059695;28;20021;-71
2021/12/13 18:28:59;;;;;;;28.88;15.00;;;7.20;99.90;;;;;;5060035;28;20017;-71
2021/12/13 18:31:33;;;;;;;18.25;9.45;;;7.20;99.90;;;;;;5058740;28;20045;-71
2021/12/13 18:34:06;;;;;;;15.20;8.13;;;7.20;99.90;;;;;;5057976;28;20103;-71
2021/12/13 18:36:43;;;;;;;19.02;10.23;;;7.20;99.90;;;;;;5058662;28;20320;-71
2021/12/13 18:39:18;;;;;;;16.40;8.85;;;7.20;99.90;;;;;;5058886;28;20440;-71
2021/12/13 18:41:53;;;;;;;16.30;9.38;;;7.10;99.90;;;;;;5058769;28;20028;-71
2021/12/13 18:45:05;;;;;;;20.17;9.50;;;7.10;99.90;;;;;;5058733;28;20033;-71
2021/12/13 18:47:46;;;;;;;23.17;9.88;;;7.10;99.90;;;;;;5058166;28;20049;-71
2021/12/13 18:50:16;;;;;;;20.67;11.15;;;7.10;99.90;;;;;;5058522;28;20016;-71
2021/12/13 18:52:49;;;;;;;18.02;10.50;;;7.10;99.90;;;;;;5059182;28;20021;-71
2021/12/13 18:55:37;;;;;;;18.45;9.88;;;7.10;99.90;;;;;;5059252;28;20413;-71
2021/12/13 18:58:12;;;;;;;20.38;8.75;;;7.10;99.90;;;;;;5059161;28;20032;-71
2021/12/13 19:00:52;;;;;;;24.17;10.63;;;7.10;99.90;;;;;;5059170;28;20025;-71
2021/12/13 19:03:24;;;;;;;21.88;11.13;;;7.10;99.90;;;;;;5059568;28;20025;-71
2021/12/13 19:06:08;;;;;;;23.92;10.52;;;7.10;99.90;;;;;;5059442;28;20028;-71
2021/12/13 19:08:47;;;;;;;21.90;10.80;;;7.10;99.90;;;;;;5059023;28;20070;-71
2021/12/13 19:11:33;;;;;;;16.80;10.77;;;7.10;99.90;;;;;;5058268;28;20094;-71
2021/12/13 19:14:09;;;;;;;21.42;10.25;;;7.00;99.90;;;;;;5058072;28;20025;-71
2021/12/13 19:16:49;;;;;;;18.50;9.07;;;7.10;99.90;;;;;;5058307;28;20025;-71
2021/12/13 19:19:27;;;;;;;20.15;9.68;;;7.10;99.90;;;;;;5057804;28;20111;-71
2021/12/13 19:21:59;;;;;;;19.42;10.05;;;7.10;99.90;;;;;;5058276;28;20048;-71
2021/12/13 19:24:41;;;;;;;17.27;8.48;;;7.00;99.90;;;;;;5057778;28;20068;-71
2021/12/13 19:27:37;;;;;;;17.88;9.90;;;7.10;99.90;;;;;;5057999;28;20028;-71
2021/12/13 19:30:21;;;;;;;17.80;9.55;;;7.00;99.90;;;;;;5057559;28;20017;-71
2021/12/13 19:32:58;;;;;;;19.10;9.90;;;7.00;99.90;;;;;;5057633;28;20082;-71
2021/12/13 19:35:41;;;;;;;19.52;10.32;;;7.00;99.90;;;;;;5058966;28;20084;-71
2021/12/13 19:38:27;;;;;;;19.13;9.45;;;7.00;99.90;;;;;;5058703;28;20401;-71
2021/12/13 19:41:04;;;;;;;20.27;9.60;;;7.00;99.90;;;;;;5058326;28;20055;-71
2021/12/13 19:43:53;;;;;;;20.45;9.60;;;7.10;99.90;;;;;;5057299;28;20703;-71
2021/12/13 19:46:38;;;;;;;19.35;9.07;;;7.10;99.90;;;;;;5058386;28;20032;-71
2021/12/13 19:49:15;;;;;;;21.83;8.95;;;7.10;99.90;;;;;;5057942;28;20044;-71
2021/12/13 19:51:57;;;;;;;17.23;7.85;;;7.10;99.90;;;;;;5056982;28;20032;-71
2021/12/13 19:54:36;;;;;;;18.67;7.68;;;7.10;99.90;;;;;;5057125;28;20025;-71
2021/12/13 19:57:13;;;;;;;51.40;20.48;;;7.10;99.90;;;;;;5040067;28;20024;-71
2021/12/13 19:59:53;;;;;;;52.90;21.63;;;7.10;99.90;;;;;;5057046;28;20103;-71
2021/12/13 20:02:39;;;;;;;36.38;16.45;;;7.10;99.90;;;;;;5072492;28;20040;-71
2021/12/13 20:05:22;;;;;;;35.33;16.75;;;7.10;99.90;;;;;;5057052;28;20104;-71
2021/12/13 20:08:08;;;;;;;19.40;9.52;;;7.10;99.90;;;;;;5056697;28;20040;-71
2021/12/13 20:10:49;;;;;;;23.10;11.00;;;7.10;99.90;;;;;;5056859;28;20474;-71
2021/12/13 20:13:43;;;;;;;21.25;9.90;;;7.10;99.90;;;;;;5056744;28;20029;-71
2021/12/13 20:16:19;;;;;;;21.35;8.25;;;7.10;99.90;;;;;;5056166;28;20029;-71
2021/12/13 20:18:54;;;;;;;14.23;6.95;;;7.10;99.90;;;;;;5056800;28;20044;-71
2021/12/13 20:21:30;;;;;;;13.45;7.03;;;7.10;99.90;;;;;;5056447;28;20031;-71
2021/12/13 20:24:09;;;;;;;;;;;7.10;99.90;;;;;;5058038;28;20100;-71
2021/12/13 20:26:53;;;;;;;14.95;6.55;;;7.10;99.90;;;;;;5057973;28;20003;-71
2021/12/13 20:29:36;;;;;;;20.73;8.75;;;7.20;99.90;;;;;;5058144;28;20098;-71
2021/12/13 20:32:11;;;;;;;15.63;6.88;;;7.20;99.90;;;;;;5056309;28;20320;-71
2021/12/13 20:34:47;;;;;;;17.85;7.35;;;7.20;99.90;;;;;;5057703;28;20040;-71
2021/12/13 20:37:26;;;;;;;12.30;6.10;;;7.20;99.90;;;;;;5056369;28;20029;-71
2021/12/13 20:40:04;;;;;;;16.23;7.18;;;7.30;99.90;;;;;;5056592;28;20052;-71
2021/12/13 20:42:58;;;;;;;20.50;9.43;;;7.30;99.90;;;;;;5056422;28;20025;-71
2021/12/13 20:45:38;;;;;;;11.13;5.45;;;7.30;99.90;;;;;;5056406;28;20385;-71
2021/12/13 20:48:18;;;;;;;8.43;4.30;;;7.30;99.90;;;;;;5056514;28;20080;-71
2021/12/13 20:50:54;;;;;;;11.43;4.70;;;7.30;99.90;;;;;;5056519;28;20013;-71
2021/12/13 20:53:26;;;;;;;8.45;4.60;;;7.40;99.90;;;;;;5055088;28;20420;-71
2021/12/13 20:56:03;;;;;;;7.13;4.03;;;7.50;99.90;;;;;;5056292;28;20108;-71
2021/12/13 20:58:45;;;;;;;10.30;4.22;;;7.50;99.90;;;;;;5061287;28;20013;-70
2021/12/13 21:01:47;;;;;;;7.68;3.72;;;7.50;99.90;;;;;;5061281;28;20024;-71
2021/12/13 21:04:26;;;;;;;7.63;4.47;;;7.60;99.90;;;;;;5058489;28;20072;-71
2021/12/13 21:07:08;;;;;;;12.40;4.35;;;7.60;99.90;;;;;;5061155;28;20028;-71
2021/12/13 21:09:57;;;;;;;7.72;4.05;;;7.70;99.90;;;;;;5061285;28;20025;-71
2021/12/13 21:12:32;;;;;;;7.18;3.88;;;7.70;99.90;;;;;;5061517;28;20087;-71
2021/12/13 21:15:11;;;;;;;11.00;5.50;;;7.70;99.90;;;;;;5061542;28;20108;-71
2021/12/13 21:17:47;;;;;;;8.52;4.38;;;7.70;99.90;;;;;;5061035;28;20048;-71
2021/12/13 21:20:32;;;;;;;8.48;4.35;;;7.60;99.90;;;;;;5060414;28;20094;-71
2021/12/13 21:23:14;;;;;;;9.52;4.10;;;7.70;99.90;;;;;;5059797;28;20110;-71
2021/12/13 21:25:58;;;;;;;9.25;4.45;;;7.60;99.90;;;;;;5059953;28;20478;-71
2021/12/13 21:28:33;;;;;;;9.10;4.72;;;7.60;99.90;;;;;;5060046;28;20067;-71
2021/12/13 21:31:24;;;;;;;7.50;3.90;;;7.60;99.90;;;;;;5060405;28;20155;-71
2021/12/13 21:34:29;;;;;;;6.80;3.55;;;7.60;99.90;;;;;;5059838;28;20025;-71
2021/12/13 21:39:47;;;;;;;8.13;4.32;;;7.50;99.90;;;;;;5060106;28;20059;-71
2021/12/13 21:42:22;;;;;;;9.55;4.35;;;7.50;99.90;;;;;;5060525;28;20025;-70
2021/12/13 21:45:03;;;;;;;6.47;3.70;;;7.50;99.90;;;;;;5061049;28;20425;-70
2021/12/13 21:47:46;;;;;;;7.10;4.13;;;7.50;99.90;;;;;;5060582;28;20048;-71
2021/12/13 21:50:30;;;;;;;6.18;3.60;;;7.50;99.90;;;;;;5060540;28;20017;-71
2021/12/13 21:53:09;;;;;;;7.10;3.83;;;7.50;99.90;;;;;;5060787;28;20305;-71
2021/12/13 21:55:47;;;;;;;8.63;3.83;;;7.50;99.90;;;;;;5060267;28;20021;-71
2021/12/13 21:58:38;;;;;;;8.30;3.97;;;7.50;99.90;;;;;;5060349;28;20510;-70
2021/12/13 22:01:38;;;;;;;9.77;5.35;;;7.50;99.90;;;;;;5059311;28;20052;-71
2021/12/13 22:04:18;;;;;;;6.93;3.92;;;7.50;99.90;;;;;;5059681;28;20021;-71
2021/12/13 22:07:01;;;;;;;8.07;4.05;;;7.40;99.90;;;;;;5059044;28;20059;-71
2021/12/13 22:09:57;;;;;;;7.88;4.55;;;7.40;99.90;;;;;;5057948;28;20031;-71
2021/12/13 22:12:35;;;;;;;9.02;4.28;;;7.40;99.90;;;;;;5059002;28;20017;-70
2021/12/13 22:15:25;;;;;;;8.45;4.28;;;7.40;99.90;;;;;;5059519;28;20025;-70
2021/12/13 22:17:57;;;;;;;6.75;3.72;;;7.40;99.90;;;;;;5058970;28;20029;-71
2021/12/13 22:20:28;;;;;;;5.22;3.03;;;7.30;99.90;;;;;;5057983;28;20091;-71
2021/12/13 22:22:59;;;;;;;6.25;3.00;;;7.30;99.90;;;;;;5058071;28;20421;-71
2021/12/13 22:25:39;;;;;;;6.40;2.80;;;7.40;99.90;;;;;;5060220;28;20421;-71
2021/12/13 22:28:10;;;;;;;4.50;2.90;;;7.40;99.90;;;;;;5059788;28;20067;-70
2021/12/13 22:30:56;;;;;;;5.50;2.95;;;7.40;99.90;;;;;;5059656;28;20079;-71
2021/12/13 22:33:25;;;;;;;5.57;3.10;;;7.40;99.90;;;;;;5059593;28;20017;-71
2021/12/13 22:35:54;;;;;;;5.03;2.90;;;7.40;99.90;;;;;;5060115;28;20071;-70
2021/12/13 22:38:32;;;;;;;5.75;3.40;;;7.30;99.90;;;;;;5059658;28;20029;-71
2021/12/13 22:41:03;;;;;;;6.47;3.83;;;7.30;99.90;;;;;;5058273;28;20017;-71
2021/12/13 22:43:51;;;;;;;5.38;3.33;;;7.30;99.90;;;;;;5059456;28;20098;-70
2021/12/13 22:46:30;;;;;;;7.28;3.50;;;7.30;99.90;;;;;;5058233;28;20029;-71
2021/12/13 22:49:11;;;;;;;8.32;3.28;;;7.30;99.90;;;;;;5058324;28;20445;-70
2021/12/13 22:51:44;;;;;;;10.32;3.83;;;7.30;99.90;;;;;;5058495;28;20360;-71
2021/12/13 22:54:12;;;;;;;5.00;3.40;;;7.30;99.90;;;;;;5058394;28;20048;-71
2021/12/13 22:56:41;;;;;;;8.23;3.20;;;7.30;99.90;;;;;;5058294;28;20036;-71
2021/12/13 22:59:15;;;;;;;4.97;3.15;;;7.30;99.90;;;;;;5057042;28;20032;-71
2021/12/13 23:01:56;;;;;;;5.40;3.28;;;7.30;99.90;;;;;;5058139;28;20021;-71
2021/12/13 23:04:28;;;;;;;5.70;3.35;;;7.30;99.90;;;;;;5058386;28;20021;-71
2021/12/13 23:07:03;;;;;;;7.03;3.42;;;7.30;99.90;;;;;;5059165;28;20524;-71
2021/12/13 23:09:51;;;;;;;8.80;3.90;;;7.30;99.90;;;;;;5058843;28;20443;-71
2021/12/13 23:15:23;;;;;;;6.88;3.53;;;7.30;99.90;;;;;;5059195;28;20172;-71
2021/12/13 23:17:52;;;;;;;6.28;3.13;;;7.30;99.90;;;;;;5058792;28;20021;-70
2021/12/13 23:20:23;;;;;;;6.20;3.65;;;7.30;99.90;;;;;;5057258;28;20032;-70
2021/12/13 23:22:52;;;;;;;5.43;3.47;;;7.30;99.90;;;;;;5058851;28;20371;-71
2021/12/13 23:25:25;;;;;;;5.68;3.38;;;7.30;99.90;;;;;;5058028;28;20021;-71
2021/12/13 23:27:56;;;;;;;6.55;3.65;;;7.30;99.90;;;;;;5057568;28;20106;-71
2021/12/13 23:30:35;;;;;;;6.57;3.58;;;7.30;99.90;;;;;;5057538;28;20479;-71
2021/12/13 23:33:11;;;;;;;7.38;3.20;;;7.20;99.90;;;;;;5058320;28;20032;-71
2021/12/13 23:35:59;;;;;;;6.60;3.35;;;7.20;99.90;;;;;;5057523;28;20028;-71
2021/12/13 23:46:58;;;;;;;;;;;7.10;99.90;;;;;;5057835;28;20032;-71
2021/12/13 23:49:38;;;;;;;6.55;3.55;;;7.00;99.90;;;;;;5057680;28;20321;-70
2021/12/13 23:52:10;;;;;;;6.15;3.30;;;7.00;99.90;;;;;;5057949;28;20036;-71
2021/12/13 23:54:44;;;;;;;6.07;3.60;;;7.00;99.90;;;;;;5058183;28;20032;-71
2021/12/13 23:57:13;;;;;;;6.20;3.75;;;7.00;99.90;;;;;;5056833;28;20025;-71
2021/12/13 23:59:49;;;;;;;6.75;4.18;;;7.00;99.90;;;;;;5058039;28;20024;-71
